Time;durP1;ratioP1;P1;durP2;ratioP2;P2;SDS_P1;SDS_P2;PMS_P1;PMS_P2;Temp;Humidity;BMP_temperature;BMP_pressure;BME280_temperature;BME280_humidity;BME280_pressure;Samples;Min_cycle;Max_cycle;Signal;HPM_P1;HPM_P2
2024/01/19 00:00:16;;;;;;;1.70;1.70;;;;;;;-0.22;100.00;99883.56;5007660;28;20395;-62
2024/01/19 00:02:41;;;;;;;1.60;1.60;;;;;;;-0.20;100.00;99887.03;5006494;28;20033;-61
2024/01/19 00:05:07;;;;;;;1.70;1.70;;;;;;;-0.21;100.00;99890.53;5006842;28;20058;-63
2024/01/19 00:07:33;;;;;;;1.60;1.60;;;;;;;-0.24;100.00;99890.50;5005325;28;20491;-62
2024/01/19 00:09:58;;;;;;;1.60;1.60;;;;;;;-0.25;100.00;99903.56;5006026;28;20079;-63
2024/01/19 00:12:24;;;;;;;1.60;1.60;;;;;;;-0.23;100.00;99907.06;4988723;28;20022;-61
2024/01/19 00:14:49;;;;;;;1.70;1.70;;;;;;;-0.19;100.00;99914.94;5006394;28;20022;-66
2024/01/19 00:17:14;;;;;;;1.50;1.50;;;;;;;-0.21;100.00;99907.94;5005465;28;20492;-67
2024/01/19 00:19:40;;;;;;;1.70;1.70;;;;;;;-0.23;100.00;99909.69;4988304;28;20028;-67
2024/01/19 00:22:05;;;;;;;1.60;1.60;;;;;;;-0.25;100.00;99916.63;5006941;28;20022;-68
2024/01/19 00:24:30;;;;;;;1.80;1.80;;;;;;;-0.33;100.00;99921.75;5007668;28;20392;-68
2024/01/19 00:26:56;;;;;;;1.50;1.50;;;;;;;-0.40;100.00;99925.22;4988539;28;20400;-66
2024/01/19 00:29:21;;;;;;;1.90;1.80;;;;;;;-0.36;100.00;99928.69;5007291;28;20152;-68
2024/01/19 00:31:48;;;;;;;1.70;1.70;;;;;;;-0.36;100.00;99932.19;5005952;28;20029;-68
2024/01/19 00:34:14;;;;;;;1.80;1.80;;;;;;;-0.40;100.00;99927.81;5007700;28;20446;-67
2024/01/19 00:36:40;;;;;;;1.60;1.60;;;;;;;-0.41;100.00;99938.22;5010711;28;20036;-68
2024/01/19 00:39:06;;;;;;;1.67;1.67;;;;;;;-0.41;100.00;99936.50;5009519;28;20866;-68
2024/01/19 00:41:31;;;;;;;1.60;1.60;;;;;;;-0.43;100.00;99940.81;5011016;28;20108;-67
2024/01/19 00:43:57;;;;;;;1.60;1.60;;;;;;;-0.43;100.00;99946.03;5010886;28;20057;-67
2024/01/19 00:46:23;;;;;;;1.70;1.70;;;;;;;-0.42;100.00;99955.66;5010108;28;20068;-66
2024/01/19 00:48:49;;;;;;;1.67;1.67;;;;;;;-0.41;100.00;99969.56;4992298;28;20034;-68
2024/01/19 00:51:15;;;;;;;1.75;1.75;;;;;;;-0.75;100.00;99905.69;5010677;28;20091;-66
2024/01/19 00:53:41;;;;;;;1.70;1.70;;;;;;;-0.36;100.00;99967.88;5011132;28;20101;-67
2024/01/19 00:56:08;;;;;;;1.70;1.70;;;;;;;-0.27;100.00;99974.09;5010234;28;20452;-67
2024/01/19 00:58:34;;;;;;;1.70;1.70;;;;;;;-0.51;100.00;99939.88;5009245;28;20021;-68
2024/01/19 01:00:59;;;;;;;1.77;1.77;;;;;;;-0.28;100.00;99977.56;5009573;28;20439;-67
2024/01/19 01:03:26;;;;;;;1.70;1.70;;;;;;;-0.28;100.00;99990.63;5009506;28;20030;-67
2024/01/19 01:05:56;;;;;;;1.60;1.60;;;;;;;-0.30;100.00;99999.31;5007818;28;20034;-67
2024/01/19 01:08:25;;;;;;;1.80;1.80;;;;;;;-0.24;100.00;100005.47;5007032;28;20044;-67
2024/01/19 01:10:51;;;;;;;1.70;1.70;;;;;;;-0.23;100.00;100017.69;5007809;28;20037;-67
2024/01/19 01:13:17;;;;;;;1.70;1.70;;;;;;;-0.19;100.00;100024.69;5008186;28;20072;-67
2024/01/19 01:15:43;;;;;;;1.70;1.70;;;;;;;-0.47;100.00;99980.84;4992532;28;20440;-67
2024/01/19 01:18:08;;;;;;;1.70;1.70;;;;;;;-0.16;100.00;100034.28;5005181;28;20033;-67
2024/01/19 01:20:33;;;;;;;1.73;1.73;;;;;;;-0.17;100.00;100025.59;5008282;28;20029;-67
2024/01/19 01:22:59;;;;;;;1.70;1.70;;;;;;;-0.08;100.00;100032.63;5009684;28;20033;-66
2024/01/19 01:25:24;;;;;;;1.70;1.70;;;;;;;0.02;100.00;100029.25;5009103;28;20030;-67
2024/01/19 01:27:50;;;;;;;1.60;1.60;;;;;;;0.15;100.00;100035.47;5009845;28;20083;-67
2024/01/19 01:30:15;;;;;;;1.60;1.60;;;;;;;0.18;100.00;100035.50;5008685;28;20026;-67
2024/01/19 01:32:40;;;;;;;2.00;1.90;;;;;;;0.20;100.00;100045.09;4991832;28;20030;-67
2024/01/19 01:35:06;;;;;;;1.70;1.70;;;;;;;0.23;100.00;100049.50;5009522;28;20041;-67
2024/01/19 01:37:32;;;;;;;1.88;1.80;;;;;;;-0.01;100.00;100009.19;5009367;28;20144;-67
2024/01/19 01:39:57;;;;;;;1.77;1.77;;;;;;;0.27;100.00;100057.38;5009755;28;20029;-68
2024/01/19 01:42:23;;;;;;;1.60;1.60;;;;;;;0.32;100.00;100080.94;5008850;28;20140;-67
2024/01/19 01:44:48;;;;;;;1.50;1.50;;;;;;;0.34;100.00;100063.53;5008192;28;20026;-68
2024/01/19 01:47:15;;;;;;;1.70;1.70;;;;;;;0.35;100.00;100063.56;5009513;28;20034;-67
2024/01/19 01:49:41;;;;;;;1.80;1.80;;;;;;;0.36;100.00;100067.94;5009414;28;20064;-67
2024/01/19 01:52:08;;;;;;;1.70;1.70;;;;;;;0.29;100.00;100067.84;5008593;28;20041;-67
2024/01/19 01:54:34;;;;;;;1.90;1.80;;;;;;;0.31;100.00;100079.22;4991603;28;20311;-66
2024/01/19 01:57:01;;;;;;;1.70;1.70;;;;;;;0.31;100.00;100077.47;4990704;28;20034;-67
2024/01/19 01:59:27;;;;;;;1.70;1.70;;;;;;;0.36;100.00;100077.53;5008586;28;20387;-67
2024/01/19 02:01:53;;;;;;;1.70;1.70;;;;;;;0.39;100.00;100085.38;5008324;28;20022;-65
2024/01/19 02:04:18;;;;;;;1.70;1.70;;;;;;;0.25;100.00;100039.94;4989973;28;20167;-66
2024/01/19 02:06:44;;;;;;;1.63;1.63;;;;;;;0.55;100.00;100089.88;4989873;28;20146;-66
2024/01/19 02:09:09;;;;;;;1.60;1.60;;;;;;;0.55;100.00;100080.31;5005587;28;20026;-67
2024/01/19 02:11:35;;;;;;;1.50;1.50;;;;;;;0.56;100.00;100081.19;5008835;28;20030;-67
2024/01/19 02:14:03;;;;;;;1.70;1.70;;;;;;;0.54;100.00;100093.38;5007915;28;20037;-67
2024/01/19 02:16:28;;;;;;;1.55;1.55;;;;;;;0.53;100.00;100089.00;4991217;28;20026;-67
2024/01/19 02:18:54;;;;;;;1.70;1.70;;;;;;;0.51;100.00;100093.34;5008183;28;20028;-67
2024/01/19 02:21:21;;;;;;;1.60;1.60;;;;;;;0.51;100.00;100094.19;5009933;28;20438;-67
2024/01/19 02:24:13;;;;;;;1.60;1.60;;;;;;;0.56;100.00;100092.50;5008303;28;20472;-67
2024/01/19 02:26:39;;;;;;;1.85;1.77;;;;;;;0.56;100.00;100099.50;5002825;28;20057;-67
2024/01/19 02:29:04;;;;;;;1.58;1.58;;;;;;;0.50;100.00;100097.69;5007877;28;20511;-68
2024/01/19 02:31:30;;;;;;;1.60;1.60;;;;;;;0.54;100.00;100093.38;5007979;28;20125;-69
2024/01/19 02:33:56;;;;;;;1.60;1.60;;;;;;;0.54;100.00;100109.97;5008990;28;20025;-63
2024/01/19 02:36:22;;;;;;;1.70;1.70;;;;;;;0.56;100.00;100115.19;5007618;28;20117;-63
2024/01/19 02:38:47;;;;;;;1.75;1.73;;;;;;;0.57;100.00;100119.56;5008747;28;20052;-63
2024/01/19 02:41:13;;;;;;;1.65;1.65;;;;;;;0.55;100.00;100124.78;5009187;28;20100;-62
2024/01/19 02:43:38;;;;;;;1.70;1.70;;;;;;;0.54;100.00;100125.66;5007860;28;20026;-62
2024/01/19 02:46:03;;;;;;;1.75;1.75;;;;;;;0.53;100.00;100129.13;5009003;28;20411;-63
2024/01/19 02:48:29;;;;;;;1.67;1.67;;;;;;;0.48;100.00;100125.59;5008397;28;20410;-62
2024/01/19 02:50:54;;;;;;;1.40;1.40;;;;;;;0.45;100.00;100122.06;4990019;28;20034;-63
2024/01/19 02:53:20;;;;;;;1.50;1.50;;;;;;;0.45;100.00;100116.81;5007515;28;20033;-62
2024/01/19 02:55:45;;;;;;;1.60;1.60;;;;;;;0.45;100.00;100124.66;5007325;28;20030;-63
2024/01/19 02:58:11;;;;;;;1.50;1.50;;;;;;;0.37;100.00;100115.88;5005731;28;20499;-62
2024/01/19 03:00:36;;;;;;;1.73;1.73;;;;;;;0.39;100.00;100119.41;5007050;28;20527;-63
2024/01/19 03:03:01;;;;;;;1.70;1.70;;;;;;;0.41;100.00;100117.69;5006370;28;20030;-62
2024/01/19 03:05:27;;;;;;;1.60;1.60;;;;;;;0.49;100.00;100122.13;5005744;28;20052;-62
2024/01/19 03:07:52;;;;;;;1.67;1.67;;;;;;;0.49;100.00;100116.00;5006622;28;20033;-62
2024/01/19 03:10:18;;;;;;;1.52;1.52;;;;;;;0.56;100.00;100125.66;5007014;28;20113;-62
2024/01/19 03:12:43;;;;;;;1.50;1.50;;;;;;;0.15;100.00;100057.25;5007327;28;20040;-62
2024/01/19 03:15:09;;;;;;;1.90;1.80;;;;;;;0.51;100.00;100124.75;5008309;28;20065;-62
2024/01/19 03:17:34;;;;;;;1.80;1.80;;;;;;;0.42;100.00;100130.75;5007159;28;20030;-62
2024/01/19 03:20:00;;;;;;;1.70;1.70;;;;;;;0.23;100.00;100107.88;5008294;28;20464;-63
2024/01/19 03:22:28;;;;;;;1.70;1.70;;;;;;;0.42;100.00;100146.47;4990563;28;20082;-63
2024/01/19 03:24:53;;;;;;;1.70;1.70;;;;;;;0.41;100.00;100143.84;5006881;28;20053;-63
2024/01/19 03:27:18;;;;;;;1.70;1.70;;;;;;;0.18;100.00;100096.53;5007863;28;20392;-63
2024/01/19 03:29:44;;;;;;;1.52;1.52;;;;;;;0.44;100.00;100138.63;4998004;28;20265;-62
2024/01/19 03:32:10;;;;;;;1.60;1.60;;;;;;;0.45;100.00;100135.13;5008543;28;20029;-62
2024/01/19 03:34:36;;;;;;;1.50;1.50;;;;;;;0.24;100.00;100104.44;5007936;28;20034;-63
2024/01/19 03:37:03;;;;;;;1.50;1.50;;;;;;;0.50;100.00;100143.91;5007656;28;20057;-63
2024/01/19 03:39:33;;;;;;;1.63;1.63;;;;;;;0.49;100.00;100142.16;5007547;28;20036;-62
2024/01/19 03:41:59;;;;;;;1.65;1.65;;;;;;;0.47;100.00;100144.78;5007028;28;20021;-63
2024/01/19 03:44:24;;;;;;;1.40;1.40;;;;;;;0.28;100.00;100118.41;5006663;28;20108;-67
2024/01/19 03:46:50;;;;;;;1.67;1.67;;;;;;;0.48;100.00;100145.66;5006222;28;20028;-67
2024/01/19 03:49:16;;;;;;;1.60;1.60;;;;;;;0.03;100.00;100078.94;5006303;28;20084;-67
2024/01/19 03:52:02;;;;;;;1.70;1.70;;;;;;;0.14;100.00;100099.09;5006818;28;20038;-66
2024/01/19 03:54:28;;;;;;;1.60;1.60;;;;;;;0.34;100.00;100126.31;5006283;28;20117;-68
2024/01/19 03:56:55;;;;;;;1.35;1.35;;;;;;;0.53;100.00;100164.91;5006143;28;20484;-66
2024/01/19 03:59:20;;;;;;;1.60;1.60;;;;;;;0.53;100.00;100164.91;5005934;28;20502;-66
2024/01/19 04:01:46;;;;;;;1.60;1.60;;;;;;;0.47;100.00;100154.34;5006215;28;20539;-66
2024/01/19 04:04:11;;;;;;;1.90;1.80;;;;;;;0.47;100.00;100149.13;5006334;28;20563;-67
2024/01/19 04:06:36;;;;;;;1.85;1.77;;;;;;;0.49;100.00;100152.63;5007393;28;20096;-67
2024/01/19 04:09:02;;;;;;;1.60;1.60;;;;;;;0.49;100.00;100147.41;4990210;28;20484;-67
2024/01/19 04:11:28;;;;;;;1.67;1.67;;;;;;;0.43;100.00;100145.59;4992896;28;20080;-66
2024/01/19 04:13:54;;;;;;;1.50;1.50;;;;;;;0.47;100.00;100150.00;5011568;28;20062;-67
2024/01/19 04:16:19;;;;;;;1.60;1.60;;;;;;;0.52;100.00;100150.03;5010698;28;20069;-67
2024/01/19 04:18:45;;;;;;;1.60;1.60;;;;;;;0.19;100.00;100085.22;5010459;28;20045;-66
2024/01/19 04:21:10;;;;;;;1.50;1.50;;;;;;;0.54;100.00;100149.22;5011103;28;20029;-66
2024/01/19 04:23:36;;;;;;;1.50;1.50;;;;;;;0.54;100.00;100143.09;5010390;28;20048;-67
2024/01/19 04:26:01;;;;;;;1.50;1.50;;;;;;;0.53;100.00;100152.66;4992608;28;20317;-66
2024/01/19 04:28:27;;;;;;;1.50;1.50;;;;;;;0.52;100.00;100157.88;5010422;28;20081;-67
2024/01/19 04:30:52;;;;;;;1.60;1.60;;;;;;;0.50;100.00;100159.59;5011084;28;20041;-67
2024/01/19 04:33:17;;;;;;;1.60;1.60;;;;;;;0.28;100.00;100119.28;5009929;28;20029;-67
2024/01/19 04:35:43;;;;;;;1.60;1.60;;;;;;;0.47;100.00;100159.59;5011184;28;20072;-67
2024/01/19 04:38:08;;;;;;;1.60;1.60;;;;;;;0.49;100.00;100170.94;5010325;28;20030;-67
2024/01/19 04:40:34;;;;;;;1.60;1.60;;;;;;;0.51;100.00;100177.94;5009765;28;20029;-67
2024/01/19 04:42:59;;;;;;;1.55;1.55;;;;;;;0.48;100.00;100182.28;5008405;28;20104;-67
2024/01/19 04:45:24;;;;;;;1.45;1.45;;;;;;;0.17;100.00;100148.78;5008720;28;20030;-66
2024/01/19 04:47:50;;;;;;;1.60;1.60;;;;;;;0.45;100.00;100197.94;5007533;28;20033;-67
2024/01/19 04:50:15;;;;;;;1.63;1.63;;;;;;;0.42;100.00;100193.56;5008576;28;20103;-68
2024/01/19 04:52:44;;;;;;;1.70;1.70;;;;;;;0.38;100.00;100198.75;5007379;28;20039;-62
2024/01/19 04:55:09;;;;;;;1.60;1.60;;;;;;;0.33;100.00;100197.81;5009396;28;20060;-67
2024/01/19 04:57:34;;;;;;;1.60;1.60;;;;;;;-0.14;100.00;100126.69;5002517;28;20551;-66
2024/01/19 05:00:00;;;;;;;1.60;1.60;;;;;;;0.29;100.00;100204.75;4974639;28;20326;-67
2024/01/19 05:02:25;;;;;;;1.70;1.70;;;;;;;0.27;100.00;100208.19;5004323;28;20038;-66
2024/01/19 05:04:51;;;;;;;1.70;1.70;;;;;;;0.23;100.00;100207.28;5010037;28;20045;-67
2024/01/19 05:07:16;;;;;;;1.50;1.50;;;;;;;-0.18;100.00;100145.78;5009612;28;20022;-66
2024/01/19 05:09:42;;;;;;;1.67;1.67;;;;;;;0.20;100.00;100212.47;4992617;28;20034;-66
2024/01/19 05:12:07;;;;;;;1.42;1.42;;;;;;;0.17;100.00;100214.16;4992001;28;20530;-65
2024/01/19 05:14:32;;;;;;;1.70;1.70;;;;;;;0.11;100.00;100220.22;5010123;28;20030;-67
2024/01/19 05:16:58;;;;;;;1.65;1.65;;;;;;;-0.07;100.00;100207.78;5010296;28;20033;-67
2024/01/19 05:19:23;;;;;;;1.60;1.60;;;;;;;-0.05;100.00;100231.38;4990407;28;20518;-67
2024/01/19 05:21:49;;;;;;;1.75;1.75;;;;;;;-0.20;100.00;100210.25;4992309;28;20033;-67
2024/01/19 05:24:14;;;;;;;1.60;1.60;;;;;;;-0.10;100.00;100244.34;4992097;28;20106;-67
2024/01/19 05:26:39;;;;;;;1.70;1.70;;;;;;;-0.18;100.00;100243.38;5009429;28;20036;-67
2024/01/19 05:29:05;;;;;;;1.67;1.67;;;;;;;-0.19;100.00;100259.03;5009566;28;20108;-67
2024/01/19 05:31:30;;;;;;;1.70;1.70;;;;;;;-0.24;100.00;100266.81;5009479;28;20041;-67
2024/01/19 05:33:56;;;;;;;1.70;1.70;;;;;;;-0.29;100.00;100271.09;5010099;28;20026;-66
2024/01/19 05:36:21;;;;;;;1.60;1.60;;;;;;;-0.30;100.00;100284.16;5008874;28;20022;-67
2024/01/19 05:38:47;;;;;;;1.65;1.65;;;;;;;-0.24;100.00;100277.28;4974653;28;20675;-67
2024/01/19 05:41:18;;;;;;;1.60;1.60;;;;;;;-0.30;100.00;100286.75;4987733;28;20108;-65
2024/01/19 05:43:43;;;;;;;1.70;1.70;;;;;;;-0.33;100.00;100284.97;4994208;28;20029;-66
2024/01/19 05:46:08;;;;;;;1.80;1.75;;;;;;;-0.31;100.00;100288.47;5006944;28;20038;-66
2024/01/19 05:48:34;;;;;;;1.90;1.80;;;;;;;-0.27;100.00;100294.63;5008542;28;20079;-66
2024/01/19 05:50:59;;;;;;;1.70;1.70;;;;;;;-0.25;100.00;100296.41;4990360;28;20030;-66
2024/01/19 05:53:25;;;;;;;1.50;1.50;;;;;;;-0.20;100.00;100299.97;5007281;28;20587;-66
2024/01/19 05:55:50;;;;;;;1.70;1.70;;;;;;;-0.20;100.00;100299.09;4990882;28;20026;-66
2024/01/19 05:58:16;;;;;;;1.70;1.70;;;;;;;-0.16;100.00;100306.13;5006748;28;20022;-66
2024/01/19 06:00:41;;;;;;;1.60;1.60;;;;;;;-0.46;100.00;100267.34;4989774;28;20030;-66
2024/01/19 06:03:06;;;;;;;1.70;1.70;;;;;;;-0.20;100.00;100306.94;5009903;28;20030;-66
2024/01/19 06:05:32;;;;;;;1.70;1.70;;;;;;;-0.17;100.00;100315.72;5008373;28;20046;-66
2024/01/19 06:07:57;;;;;;;1.80;1.80;;;;;;;-0.23;100.00;100320.84;5009030;28;20412;-66
2024/01/19 06:10:22;;;;;;;1.65;1.65;;;;;;;-0.20;100.00;100325.25;5008728;28;20806;-66
2024/01/19 06:12:48;;;;;;;1.63;1.63;;;;;;;-0.24;100.00;100319.09;5009712;28;20032;-66
2024/01/19 06:15:13;;;;;;;1.52;1.52;;;;;;;-0.30;100.00;100323.34;5008320;28;20105;-66
2024/01/19 06:17:39;;;;;;;1.70;1.70;;;;;;;-0.33;100.00;100334.59;5007967;28;20033;-66
2024/01/19 06:20:04;;;;;;;1.70;1.70;;;;;;;-0.37;100.00;100338.03;5009537;28;20034;-66
2024/01/19 06:22:30;;;;;;;1.80;1.80;;;;;;;-0.38;100.00;100353.69;5008794;28;20073;-66
2024/01/19 06:24:55;;;;;;;1.70;1.70;;;;;;;-0.40;100.00;100351.06;5005453;28;20025;-66
2024/01/19 06:27:21;;;;;;;1.80;1.80;;;;;;;-0.42;100.00;100363.22;5008879;28;20617;-65
2024/01/19 06:29:46;;;;;;;1.60;1.60;;;;;;;-0.69;100.00;100323.56;5008819;28;20049;-65
2024/01/19 06:32:13;;;;;;;1.60;1.60;;;;;;;-0.40;100.00;100369.34;5003266;28;20029;-65
2024/01/19 06:34:40;;;;;;;1.70;1.70;;;;;;;-0.42;100.00;100383.22;4989761;28;20021;-66
2024/01/19 06:37:05;;;;;;;1.60;1.60;;;;;;;-0.76;100.00;100337.38;5005435;28;20022;-65
2024/01/19 06:39:31;;;;;;;1.73;1.70;;;;;;;-0.46;100.00;100395.34;5004426;28;20025;-65
2024/01/19 06:41:56;;;;;;;1.70;1.70;;;;;;;-0.71;100.00;100367.03;5004035;28;20034;-65
2024/01/19 06:44:21;;;;;;;1.70;1.70;;;;;;;-0.43;100.00;100392.78;5005035;28;20133;-65
2024/01/19 06:46:47;;;;;;;1.70;1.70;;;;;;;-0.40;100.00;100400.72;4990526;28;20030;-66
2024/01/19 06:49:13;;;;;;;1.90;1.80;;;;;;;-0.64;100.00;100374.16;4988789;28;20038;-64
2024/01/19 06:51:39;;;;;;;2.00;1.90;;;;;;;-0.43;100.00;100416.31;4989811;28;20080;-66
2024/01/19 06:54:04;;;;;;;1.67;1.67;;;;;;;-0.42;100.00;100418.09;5007944;28;20033;-65
2024/01/19 06:56:30;;;;;;;1.90;1.80;;;;;;;-0.43;100.00;100429.38;5007824;28;20491;-65
2024/01/19 06:58:55;;;;;;;1.70;1.70;;;;;;;-0.41;100.00;100435.50;5008247;28;20029;-65
2024/01/19 07:01:22;;;;;;;1.80;1.80;;;;;;;-0.38;100.00;100440.78;5008700;28;20030;-66
2024/01/19 07:03:48;;;;;;;1.70;1.70;;;;;;;-0.39;100.00;100433.81;5007631;28;20065;-66
2024/01/19 07:06:13;;;;;;;1.90;1.80;;;;;;;-0.32;100.00;100448.75;5008147;28;20112;-65
2024/01/19 07:08:39;;;;;;;1.70;1.70;;;;;;;-0.28;100.00;100447.06;5008280;28;20152;-66
2024/01/19 07:11:04;;;;;;;1.50;1.50;;;;;;;-0.25;100.00;100444.50;5008053;28;20388;-65
2024/01/19 07:13:30;;;;;;;1.70;1.70;;;;;;;-0.14;100.00;100443.84;5006589;28;20637;-62
2024/01/19 07:15:55;;;;;;;1.70;1.70;;;;;;;-0.17;100.00;100451.63;5007001;28;20503;-62
2024/01/19 07:18:20;;;;;;;1.70;1.70;;;;;;;-0.19;100.00;100460.28;4988261;28;20030;-63
2024/01/19 07:20:46;;;;;;;1.70;1.70;;;;;;;-0.20;100.00;100467.22;5007357;28;20072;-62
2024/01/19 07:23:11;;;;;;;1.60;1.60;;;;;;;-0.44;100.00;100425.00;5007157;28;20018;-62
2024/01/19 07:25:37;;;;;;;1.60;1.60;;;;;;;-0.19;100.00;100481.19;5004750;28;20034;-63
2024/01/19 07:28:02;;;;;;;1.60;1.60;;;;;;;-0.36;100.00;100464.31;4988261;28;20026;-63
2024/01/19 07:30:28;;;;;;;1.70;1.70;;;;;;;-0.14;100.00;100488.28;5004694;28;20034;-62
2024/01/19 07:32:53;;;;;;;1.52;1.52;;;;;;;-0.11;100.00;100493.56;5006633;28;20044;-63
2024/01/19 07:35:19;;;;;;;1.60;1.60;;;;;;;-0.03;100.00;100504.13;5006330;28;20026;-62
2024/01/19 07:37:45;;;;;;;1.67;1.67;;;;;;;-0.08;100.00;100498.81;5005739;28;20487;-63
2024/01/19 07:40:11;;;;;;;1.55;1.55;;;;;;;0.05;100.00;100499.03;5002528;28;20113;-63
2024/01/19 07:42:36;;;;;;;1.70;1.70;;;;;;;0.08;100.00;100493.88;5006357;28;20201;-62
2024/01/19 07:45:02;;;;;;;1.70;1.70;;;;;;;0.13;100.00;100505.28;5009152;28;20033;-62
2024/01/19 07:47:27;;;;;;;1.60;1.60;;;;;;;0.20;100.00;100504.53;5010819;28;20029;-63
2024/01/19 07:49:52;;;;;;;1.55;1.55;;;;;;;0.22;100.00;100513.25;5012306;28;20030;-63
2024/01/19 07:52:18;;;;;;;1.60;1.60;;;;;;;0.25;100.00;100529.03;5011926;28;20022;-62
2024/01/19 07:54:44;;;;;;;1.60;1.60;;;;;;;0.27;100.00;100527.28;5009342;28;20044;-63
2024/01/19 07:57:09;;;;;;;1.63;1.63;;;;;;;0.28;100.00;100535.16;5011140;28;20022;-62
2024/01/19 07:59:35;;;;;;;1.60;1.60;;;;;;;0.30;100.00;100545.69;5010069;28;20654;-63
2024/01/19 08:02:01;;;;;;;1.50;1.50;;;;;;;0.35;100.00;100546.63;4990750;28;20018;-63
2024/01/19 08:04:27;;;;;;;1.70;1.70;;;;;;;0.39;100.00;100548.44;4992450;28;20034;-62
2024/01/19 08:06:52;;;;;;;1.70;1.70;;;;;;;0.43;100.00;100560.72;5006605;28;20103;-63
2024/01/19 08:09:18;;;;;;;1.60;1.60;;;;;;;0.48;100.00;100553.84;4994095;28;20388;-63
2024/01/19 08:11:43;;;;;;;1.50;1.50;;;;;;;0.59;100.00;100558.38;5010036;28;20037;-63
2024/01/19 08:14:08;;;;;;;1.60;1.60;;;;;;;0.64;100.00;100561.06;5011682;28;20104;-63
2024/01/19 08:16:34;;;;;;;1.58;1.58;;;;;;;0.70;100.00;100571.63;5010980;28;20457;-63
2024/01/19 08:19:00;;;;;;;1.50;1.50;;;;;;;0.76;100.00;100567.34;5010060;28;20018;-62
2024/01/19 08:21:25;;;;;;;1.60;1.60;;;;;;;0.85;100.00;100567.50;5011637;28;20022;-62
2024/01/19 08:23:51;;;;;;;1.50;1.50;;;;;;;1.02;100.00;100562.53;5011371;28;20026;-65
2024/01/19 08:26:19;;;;;;;1.52;1.52;;;;;;;0.98;100.00;100532.78;5007661;28;20053;-65
2024/01/19 08:28:46;;;;;;;1.50;1.50;;;;;;;1.30;100.00;100568.13;5009552;28;20030;-65
2024/01/19 08:31:12;;;;;;;1.60;1.60;;;;;;;1.41;100.00;100576.16;5009350;28;20034;-65
2024/01/19 08:33:37;;;;;;;1.38;1.38;;;;;;;1.53;100.00;100578.03;5006011;28;20026;-66
2024/01/19 08:36:03;;;;;;;1.50;1.50;;;;;;;1.75;100.00;100577.41;5009708;28;20537;-65
2024/01/19 08:38:29;;;;;;;1.45;1.45;;;;;;;1.67;100.00;100537.13;5024377;28;20025;-65
2024/01/19 08:40:54;;;;;;;1.27;1.27;;;;;;;2.02;100.00;100578.63;4991151;28;20056;-66
2024/01/19 08:43:20;;;;;;;1.35;1.35;;;;;;;2.08;100.00;100586.53;5009501;28;20210;-65
2024/01/19 08:45:45;;;;;;;1.48;1.48;;;;;;;2.65;100.00;100579.19;5008616;28;20018;-65
2024/01/19 08:48:11;;;;;;;1.40;1.40;;;;;;;3.01;100.00;100593.47;5009710;28;20029;-65
2024/01/19 08:50:38;;;;;;;1.35;1.35;;;;;;;2.79;100.00;100549.53;5016443;28;20021;-65
2024/01/19 08:53:04;;;;;;;1.50;1.50;;;;;;;2.95;100.00;100551.41;4992261;28;20064;-65
2024/01/19 08:55:29;;;;;;;1.40;1.40;;;;;;;3.27;100.00;100602.41;5017403;28;20104;-65
2024/01/19 08:57:55;;;;;;;1.27;1.27;;;;;;;3.35;98.83;100605.94;5008314;28;20347;-64
2024/01/19 09:00:21;;;;;;;1.30;1.30;;;;;;;3.46;98.14;100604.28;5007520;28;20030;-65
2024/01/19 09:02:50;;;;;;;1.25;1.25;;;;;;;4.35;100.00;100596.69;5008169;28;20033;-65
2024/01/19 09:05:16;;;;;;;1.10;1.10;;;;;;;5.80;100.00;100582.38;5007250;28;20124;-65
2024/01/19 09:07:42;;;;;;;1.20;1.20;;;;;;;7.20;93.78;100599.06;5006196;28;20026;-65
2024/01/19 09:10:08;;;;;;;1.05;1.05;;;;;;;7.94;81.88;100585.81;5008642;28;20038;-65
2024/01/19 09:12:34;;;;;;;1.10;1.10;;;;;;;8.51;73.41;100600.06;5008140;28;20064;-65
2024/01/19 09:14:59;;;;;;;0.90;0.90;;;;;;;9.18;68.86;100603.38;5009461;28;20104;-66
2024/01/19 09:17:25;;;;;;;0.98;0.98;;;;;;;8.67;60.09;100623.69;5008644;28;20040;-66
2024/01/19 09:19:51;;;;;;;1.00;1.00;;;;;;;7.20;61.33;100621.06;5009815;28;20109;-66
2024/01/19 09:22:17;;;;;;;0.90;0.90;;;;;;;6.44;64.88;100631.38;4990279;28;20120;-66
2024/01/19 09:24:43;;;;;;;1.00;1.00;;;;;;;5.68;68.66;100634.34;5006665;28;20129;-66
2024/01/19 09:27:08;;;;;;;1.00;1.00;;;;;;;5.31;71.10;100652.03;4989237;28;20532;-67
2024/01/19 09:29:34;;;;;;;0.93;0.93;;;;;;;4.54;73.54;100645.88;4989661;28;20097;-66
2024/01/19 09:31:59;;;;;;;1.00;1.00;;;;;;;4.07;77.89;100658.91;4974762;28;20101;-67
2024/01/19 09:34:24;;;;;;;1.10;1.10;;;;;;;4.01;79.25;100670.31;5008391;28;20029;-66
2024/01/19 09:36:50;;;;;;;1.13;1.13;;;;;;;3.67;81.76;100651.72;5007587;28;20383;-67
2024/01/19 09:39:15;;;;;;;1.10;1.10;;;;;;;3.90;83.23;100681.66;5008469;28;20021;-67
2024/01/19 09:41:49;;;;;;;1.20;1.20;;;;;;;3.87;83.35;100684.28;5009462;28;20032;-67
2024/01/19 09:44:18;;;;;;;1.20;1.20;;;;;;;3.74;84.39;100682.47;5010127;28;20539;-66
2024/01/19 09:47:15;;;;;;;1.17;1.17;;;;;;;3.67;85.03;100701.69;5008289;28;20553;-67
2024/01/19 09:49:53;;;;;;;1.20;1.20;;;;;;;3.55;85.38;100709.50;4976136;28;20034;-66
2024/01/19 09:52:25;;;;;;;1.17;1.17;;;;;;;3.42;86.51;100710.28;5009403;28;20041;-66
2024/01/19 09:54:51;;;;;;;1.17;1.17;;;;;;;3.16;87.29;100722.38;5009367;28;20030;-66
2024/01/19 09:57:16;;;;;;;1.00;1.00;;;;;;;3.01;88.57;100724.84;5009872;28;20033;-66
2024/01/19 09:59:43;;;;;;;1.10;1.10;;;;;;;2.96;89.74;100729.19;5010241;28;20026;-66
2024/01/19 10:02:11;;;;;;;1.25;1.25;;;;;;;3.06;90.52;100728.41;5009082;28;20022;-66
2024/01/19 10:04:37;;;;;;;1.20;1.20;;;;;;;3.11;90.87;100731.94;5010038;28;20065;-65
2024/01/19 10:07:03;;;;;;;1.05;1.05;;;;;;;3.20;91.37;100732.91;5008639;28;20030;-66
2024/01/19 10:09:29;;;;;;;1.23;1.23;;;;;;;3.22;91.50;100736.44;5009062;28;20080;-66
2024/01/19 10:11:55;;;;;;;1.23;1.23;;;;;;;3.16;92.50;100735.50;5010457;28;20034;-65
2024/01/19 10:14:22;;;;;;;1.20;1.20;;;;;;;3.22;92.47;100740.81;5010014;28;20034;-66
2024/01/19 10:16:49;;;;;;;1.23;1.23;;;;;;;2.88;92.25;100741.38;5007351;28;20091;-65
2024/01/19 10:19:16;;;;;;;1.10;1.10;;;;;;;2.88;93.90;100738.75;5008196;28;20068;-65
2024/01/19 10:21:42;;;;;;;1.33;1.33;;;;;;;2.68;94.12;100710.53;5005775;28;20128;-66
2024/01/19 10:24:19;;;;;;;1.30;1.30;;;;;;;2.85;93.50;100743.97;5006551;28;20029;-65
2024/01/19 10:26:52;;;;;;;1.15;1.15;;;;;;;2.76;93.75;100744.75;4990497;28;20454;-65
2024/01/19 10:29:17;;;;;;;1.40;1.40;;;;;;;2.79;93.85;100739.53;5007772;28;20117;-65
2024/01/19 10:31:46;;;;;;;0.98;0.98;;;;;;;2.99;94.41;100747.59;5006590;28;20044;-65
2024/01/19 10:34:20;;;;;;;1.40;1.40;;;;;;;3.20;94.21;100739.91;4989925;28;20044;-66
2024/01/19 10:36:47;;;;;;;1.30;1.30;;;;;;;3.44;93.90;100743.59;5003017;28;20033;-66
2024/01/19 10:39:28;;;;;;;1.10;1.10;;;;;;;3.50;92.65;100754.19;5008936;28;20116;-65
2024/01/19 10:42:07;;;;;;;1.20;1.20;;;;;;;3.70;92.62;100749.06;5007108;28;20028;-65
2024/01/19 10:44:34;;;;;;;1.40;1.40;;;;;;;3.67;91.44;100751.69;5009064;28;20038;-64
2024/01/19 10:46:59;;;;;;;1.20;1.20;;;;;;;3.84;91.89;100752.66;4995229;28;20068;-65
2024/01/19 10:49:25;;;;;;;1.20;1.20;;;;;;;3.90;91.46;100752.69;5008839;28;20030;-65
2024/01/19 10:51:52;;;;;;;1.20;1.20;;;;;;;3.79;90.68;100751.72;4990854;28;20036;-65
2024/01/19 10:54:25;;;;;;;1.20;1.20;;;;;;;3.69;90.24;100760.47;5007620;28;20033;-65
2024/01/19 10:57:08;;;;;;;1.25;1.25;;;;;;;3.64;90.55;100762.19;5009099;28;20040;-66
2024/01/19 10:59:34;;;;;;;1.20;1.20;;;;;;;3.45;90.95;100739.22;5008591;28;20030;-65
2024/01/19 11:02:02;;;;;;;1.10;1.10;;;;;;;3.57;90.80;100770.88;4991142;28;20033;-66
2024/01/19 11:04:28;;;;;;;1.05;1.05;;;;;;;3.46;91.28;100767.31;5007877;28;20022;-66
2024/01/19 11:06:54;;;;;;;1.15;1.15;;;;;;;3.26;91.24;100739.97;5008636;28;20049;-66
2024/01/19 11:09:19;;;;;;;1.13;1.13;;;;;;;3.32;91.59;100761.94;5008606;28;20030;-66
2024/01/19 11:11:51;;;;;;;1.20;1.20;;;;;;;3.27;92.04;100765.38;5007390;28;20029;-65
2024/01/19 11:14:18;;;;;;;1.20;1.20;;;;;;;3.25;92.13;100756.59;5008305;28;20033;-66
2024/01/19 11:16:47;;;;;;;1.08;1.08;;;;;;;3.33;92.30;100765.41;5007184;28;20076;-66
2024/01/19 11:19:15;;;;;;;1.30;1.30;;;;;;;3.29;92.57;100759.28;5006785;28;20365;-66